Etusivu
METAR-TAF:

METAR-TAF

Lentoasemat :

Puerto Suárez, Bolivia

Leveyspiiri: 18-59S, Pituuspiiri: 057-49W, korkeus merenpinnasta: 134 m

Tämänhetkinen sää

Tämä raportti tehtiin 35 minuuttia sitten, kello 10.00 UTC
tyyntä
Lämpötila 22°C
Kosteus 83%
Ilmanpaine 1010 hPa
Näkyvyys: 9000 m

METAR: SLPS 171000Z 00000KT 9000 NSC 22/19 Q1010

Aika: 06:35 (10:35 UTC)

Sääennuste

Tämä raportti tehtiin 6 tuntia ja 20 minuuttia sitten, kello 04.15 UTC
Ennuste voimassa 17. päivästä klo 06 UTC - 18. päivään klo 06 UTC
Tuuli kn pohjoisesta
Näkyvyys 10 km tai enemmän
Ajoittain
17. päivästä klo 15 UTC - 17. päivään klo 18 UTC
Tuuli 8 kn idästä/koillisesta
Muutamia pilviä 2000 ft:n korkeudessa

TAF: SLPS 170415Z 1706/1806 00000KT 9999 NSC TX37/1720 TN22/1710Z TEMPO 1715/1718 06008KT FEW020

Säähavainnot ja -ennusteet yli 4000 lentoasemalta (METAR- ja TAF-raportit).

Käytössä olevat sääasemat on merkitty karttaan keltaisilla ja punaisilla pisteillä.

Aseta hiiri pisteen päälle nähdäksesi sääaseman nimen.

Klikkaa sitten nähdäksesi säähavainnot ja -ennusteet.

Kartan vaihtaminen: klikkaa mustalla rastilla varustettuja vihreitä pisteitä, niin voit zoomata sisään; viivalla varustettua vihreää pistettä, niin voit zoomata ulos tai vihreitä nuolia, niin pääset viereisille kartoille.


METAR-TAF: